Aviation Digital Data Service (ADDS)

Output produced by METARs form (1827 UTC 16 August 2018)
found at http://www.aviationweather.gov/adds/metars/
 
TKPK 161731Z 1618/1718 08012KT P6SM -SHRA SCT022 SCT050 
     TEMPO 1618/1620 SHRA BKN010
       
TAF TKPN 161700Z 1618/1718 11013KT 9999 SCT018 
     PROB40 
     TEMPO 1700/1712 SHRA